Pagina principale
METAR-TAF:

METAR-TAF

Aeroporti :

Lanseria, Sudafrica

latitudine: 25-56S, longitudine: 027-56E, altezza: 1377 m

Osservazione

Il bollettino è stato emesso 53 minuti fa, alle 23:00 UTC
Vento 4 kt da sud
Temperature 7°C
Umidità 53%
Pressione 1031 hPa

METAR: FALA 162300Z AUTO 18004KT //// // ////// 07/M02 Q1031

Ora: 01:53 (23:53 UTC)

Previsione

Il bollettino è stato emesso 1 ora e 53 minuti fa, alle 22:00 UTC
Previsione valida dal 17 alle 00 UTC al 17 alle 24 UTC
Vento 3 kt da direzioni variabili
Visibilità 10 km o più
nessuna nube inferiore a 1500 m e nessun cumulonembo
Evoluzione graduale
dal 17 alle 08 UTC al 17 alle 10 UTC
Vento 10 kt da sud/sud-est
Evoluzione graduale
dal 17 alle 20 UTC al 17 alle 22 UTC
Vento 3 kt da direzioni variabili

TAF: FALA 162200Z 1700/1724 VRB03KT CAVOK TX22/1713Z TN02/1705Z BECMG 1708/1710 16010KT BECMG 1720/1722 VRB03KT

Osservazioni e previsioni meteorologiche di più di 4000 aeroporti (messaggi METAR e TAF).

Le stazioni disponibili sono rappresentate dai dischi gialli e rossi sulla carta.

Puntare il mouse per vedere il nome della stazione.

Clicca sopra per visualizzare le osservazioni e previsioni meteorologiche.

Per cambiare la mappa : fare clic sui pulsanti verdi con una croce nera per ingrandire, il pulsante verde con un trattino per diminuire, o sulla freccia verde per le mappe adiacenti.


METAR-TAF: